SBVT/VIX METAR and TAF weather

Enter ICAO airport designator
Station Type Date Time Source
SBVT METAR 2021/07/28 20:00 UTC NOAA

SBVT 282000Z 17009KT CAVOK 24/19 Q1012


Station Type Date Time Source
SBVT Decoded METAR 2021/07/28 20:00 UTC NOAA

Vitoria Aeroporto , Brazil (SBVT) 20-16S 040-17W 4M
Jul 28, 2021 - 04:00 PM EDT / 2021.07.28 2000 UTC
Wind: from the S (170 degrees) at 10 MPH (9 KT):0
Visibility: greater than 7 mile(s):0
Temperature: 75 F (24 C)
Dew Point: 66 F (19 C)
Relative Humidity: 73%
Pressure (altimeter): 29.88 in. Hg (1012 hPa)
ob: SBVT 282000Z 17009KT CAVOK 24/19 Q1012
cycle: 20

Station Type Date Time Source
SBVT TAF 2021/07/28 18:39 UTC NOAA

TAF SBVT 281530Z 2818/2918 17015KT 9999 FEW025 TX29/2818Z TN19/2909Z
BECMG 2819/2821 21015KT SCT025
BECMG 2822/2824 BKN020
BECMG 2901/2903 8000 BKN015
BECMG 2913/2915 21015G25KT BKN020
RMK PGS

Example: see airport list